MDT,Max TemperatureF,Mean TemperatureF,Min TemperatureF,Max Dew PointF,MeanDew PointF,Min DewpointF,Max Humidity, Mean Humidity, Min Humidity, Max Sea Level PressureIn, Mean Sea Level PressureIn, Min Sea Level PressureIn, Max VisibilityMiles, Mean VisibilityMiles, Min VisibilityMiles, Max Wind SpeedMPH, Mean Wind SpeedMPH, Max Gust SpeedMPH,PrecipitationIn, CloudCover, Events, WindDirDegrees
2011-10-1,91,66,43,34,31,28,60,30,11,30.04,29.91,29.80,10,10,10,23,6,36,0.00,0,,220
2011-10-2,81,68,55,46,39,35,51,37,22,30.07,29.94,29.83,10,10,10,22,9,28,0.00,1,Thunderstorm,287
2011-10-3,84,62,39,40,36,33,83,45,17,30.08,29.94,29.79,10,10,10,23,5,30,0.00,1,,216
2011-10-4,78,64,50,43,40,34,57,40,28,29.87,29.68,29.56,10,10,10,24,10,34,0.00,3,,232
2011-10-5,68,58,51,50,42,36,88,60,37,29.63,29.49,29.40,10,10,9,25,8,31,0.02,6,Rain,230
2011-10-6,55,50,44,46,43,38,93,80,63,29.66,29.52,29.37,10,9,2,22,12,28,0.23,6,Rain,312
2011-10-7,52,47,42,41,38,36,89,76,56,30.03,29.78,29.60,10,10,8,29,15,40,0.11,8,Rain,261
2011-10-8,55,48,41,40,37,32,89,74,43,30.28,30.19,30.04,10,10,10,8,5,,0.03,6,Rain,244
2011-10-9,63,45,28,37,29,22,92,59,21,30.24,30.06,29.87,10,10,10,18,6,29,0.00,0,,275
2011-10-10,62,48,33,35,31,27,76,49,29,29.90,29.77,29.62,10,10,10,29,17,38,0.00,1,,254
2011-10-11,60,50,44,45,37,33,82,62,47,29.96,29.76,29.64,10,9,2,26,18,45,0.08,5,Rain,268
2011-10-12,63,53,44,29,26,23,53,38,23,30.11,30.02,29.94,10,10,10,28,17,36,0.00,3,,268
2011-10-13,55,49,43,29,26,19,56,42,24,30.07,30.03,29.97,10,10,10,18,11,23,0.00,6,,287
2011-10-14,55,46,39,39,36,30,87,73,54,30.10,30.03,29.94,10,10,10,8,4,,0.01,6,Rain,114
2011-10-15,59,46,36,42,38,33,93,77,57,30.07,29.96,29.84,10,10,10,13,5,,0.00,7,Rain,98
2011-10-16,48,42,37,39,36,32,89,77,67,30.11,30.05,29.97,10,10,3,12,7,,0.27,8,Rain,99
2011-10-17,55,43,32,37,26,17,88,55,23,30.36,30.28,30.13,10,10,10,25,11,30,0.00,2,,276
2011-10-18,61,44,28,28,23,19,82,52,20,30.48,30.37,30.23,10,10,10,15,8,22,0.00,0,,285
2011-10-19,64,46,30,30,25,21,76,48,21,30.18,30.01,29.89,10,10,10,16,5,23,0.00,0,,291
2011-10-20,66,54,43,34,30,24,51,39,26,30.06,29.97,29.92,10,10,10,22,14,30,0.00,3,,261
2011-10-21,63,53,44,37,35,32,76,54,34,30.16,30.09,30.02,10,10,10,28,10,33,0.00,4,,256
2011-10-22,55,52,51,37,34,32,59,50,42,30.09,30.05,30.02,10,10,10,25,20,33,0.00,4,,265
2011-10-23,64,56,46,34,30,28,63,37,26,29.98,29.94,29.91,10,10,10,20,15,30,0.00,6,,280
2011-10-24,51,42,37,40,35,24,82,73,56,30.12,29.96,29.86,10,9,4,14,5,26,0.05,7,Rain,297
2011-10-25,42,32,23,27,22,19,92,67,43,30.43,30.30,30.13,10,10,9,15,6,21,0.00,4,,271
2011-10-26,46,32,17,23,16,7,89,54,25,30.45,30.27,30.05,10,10,10,22,8,31,0.00,1,,270
2011-10-27,52,38,25,17,14,9,66,34,23,30.25,30.09,30.01,10,10,10,25,17,36,0.00,3,,255
2011-10-28,57,38,21,17,13,8,75,40,17,30.31,30.13,29.84,10,10,10,43,14,55,0.00,1,,262
2011-10-29,55,46,39,30,19,10,54,32,20,30.13,29.94,29.75,10,10,10,45,26,56,0.00,4,,268
2011-10-30,64,50,35,28,23,19,54,37,23,30.22,30.07,29.90,10,10,10,36,19,46,0.00,0,,244
2011-10-31,57,47,36,38,29,16,63,46,36,30.09,29.89,29.80,10,10,10,39,21,50,0.00,5,,251